sensor_id;sensor_type;location;lat;lon;timestamp;pressure;altitude;pressure_sealevel;temperature;humidity
788;BME280;16074;42.708;23.312;2023-11-25T00:01:05;141485.34;;;13.14;100.00
788;BME280;16074;42.708;23.312;2023-11-25T00:03:34;141524.00;;;13.30;100.00
788;BME280;16074;42.708;23.312;2023-11-25T00:06:02;141550.56;;;13.41;100.00
788;BME280;16074;42.708;23.312;2023-11-25T00:08:31;141565.06;;;13.47;100.00
788;BME280;16074;42.708;23.312;2023-11-25T00:11:00;141602.47;;;13.63;100.00
788;BME280;16074;42.708;23.312;2023-11-25T00:13:30;141620.56;;;13.70;100.00
788;BME280;16074;42.708;23.312;2023-11-25T00:16:00;141627.81;;;13.73;100.00
788;BME280;16074;42.708;23.312;2023-11-25T00:18:28;141641.13;;;13.79;100.00
788;BME280;16074;42.708;23.312;2023-11-25T00:20:57;141666.47;;;13.89;100.00
788;BME280;16074;42.708;23.312;2023-11-25T00:23:25;141687.00;;;13.98;100.00
788;BME280;16074;42.708;23.312;2023-11-25T00:25:53;141718.41;;;14.11;100.00
788;BME280;16074;42.708;23.312;2023-11-25T00:28:21;141696.66;;;14.02;100.00
788;BME280;16074;42.708;23.312;2023-11-25T00:30:50;141691.84;;;14.00;100.00
788;BME280;16074;42.708;23.312;2023-11-25T00:33:19;141696.66;;;14.02;100.00
788;BME280;16074;42.708;23.312;2023-11-25T00:35:47;141707.56;;;14.06;100.00
788;BME280;16074;42.708;23.312;2023-11-25T00:38:17;141729.38;;;14.15;99.81
788;BME280;16074;42.708;23.312;2023-11-25T00:40:45;141748.66;;;14.23;100.00
788;BME280;16074;42.708;23.312;2023-11-25T00:43:14;141770.41;;;14.32;100.00
788;BME280;16074;42.708;23.312;2023-11-25T00:45:43;141768.00;;;14.31;100.00
788;BME280;16074;42.708;23.312;2023-11-25T00:48:11;141755.91;;;14.26;100.00
788;BME280;16074;42.708;23.312;2023-11-25T00:50:41;141743.81;;;14.21;100.00
788;BME280;16074;42.708;23.312;2023-11-25T00:53:09;141699.09;;;14.03;100.00
788;BME280;16074;42.708;23.312;2023-11-25T00:55:37;141682.16;;;13.96;100.00
788;BME280;16074;42.708;23.312;2023-11-25T00:58:06;141691.84;;;14.00;100.00
788;BME280;16074;42.708;23.312;2023-11-25T01:00:34;141687.00;;;13.98;100.00
788;BME280;16074;42.708;23.312;2023-11-25T01:03:02;141672.50;;;13.92;100.00
788;BME280;16074;42.708;23.312;2023-11-25T01:05:31;141691.84;;;14.00;100.00
788;BME280;16074;42.708;23.312;2023-11-25T01:08:00;141687.00;;;13.98;100.00
788;BME280;16074;42.708;23.312;2023-11-25T01:10:28;141636.31;;;13.77;100.00
788;BME280;16074;42.708;23.312;2023-11-25T01:12:56;141585.56;;;13.56;100.00
788;BME280;16074;42.708;23.312;2023-11-25T01:15:25;141536.06;;;13.35;100.00
788;BME280;16074;42.708;23.312;2023-11-25T01:17:53;141517.97;;;13.28;100.00
788;BME280;16074;42.708;23.312;2023-11-25T01:20:21;141439.53;;;12.96;100.00
788;BME280;16074;42.708;23.312;2023-11-25T01:22:50;141406.88;;;12.82;100.00
788;BME280;16074;42.708;23.312;2023-11-25T01:25:19;141387.59;;;12.74;100.00
788;BME280;16074;42.708;23.312;2023-11-25T01:27:48;141311.59;;;12.43;100.00
788;BME280;16074;42.708;23.312;2023-11-25T01:30:17;141277.81;;;12.29;100.00
788;BME280;16074;42.708;23.312;2023-11-25T01:32:46;141252.47;;;12.18;100.00
788;BME280;16074;42.708;23.312;2023-11-25T01:35:15;141147.59;;;11.75;100.00
788;BME280;16074;42.708;23.312;2023-11-25T01:37:43;141128.31;;;11.67;100.00
788;BME280;16074;42.708;23.312;2023-11-25T01:40:11;141084.84;;;11.49;100.00
788;BME280;16074;42.708;23.312;2023-11-25T01:42:41;141030.63;;;11.27;100.00
788;BME280;16074;42.708;23.312;2023-11-25T01:45:09;140978.84;;;11.05;100.00
788;BME280;16074;42.708;23.312;2023-11-25T01:47:39;140935.47;;;10.87;100.00
788;BME280;16074;42.708;23.312;2023-11-25T01:50:09;140896.94;;;10.71;100.00
788;BME280;16074;42.708;23.312;2023-11-25T01:52:39;140827.09;;;10.43;100.00
788;BME280;16074;42.708;23.312;2023-11-25T01:55:08;140816.28;;;10.38;100.00
788;BME280;16074;42.708;23.312;2023-11-25T01:57:37;138924.34;;;10.15;100.00
788;BME280;16074;42.708;23.312;2023-11-25T02:00:07;136038.75;;;10.07;100.00
788;BME280;16074;42.708;23.312;2023-11-25T02:02:41;132525.13;;;9.88;100.00
788;BME280;16074;42.708;23.312;2023-11-25T02:05:10;131002.69;;;9.84;100.00
788;BME280;16074;42.708;23.312;2023-11-25T02:07:40;128434.84;;;9.69;100.00
788;BME280;16074;42.708;23.312;2023-11-25T02:10:09;124887.06;;;9.56;100.00
788;BME280;16074;42.708;23.312;2023-11-25T02:12:38;121144.75;;;9.52;100.00
788;BME280;16074;42.708;23.312;2023-11-25T02:15:09;119424.06;;;9.41;100.00
788;BME280;16074;42.708;23.312;2023-11-25T02:17:42;116787.06;;;9.30;100.00
788;BME280;16074;42.708;23.312;2023-11-25T02:20:11;113972.97;;;9.27;100.00
788;BME280;16074;42.708;23.312;2023-11-25T02:22:42;112119.19;;;9.29;100.00
788;BME280;16074;42.708;23.312;2023-11-25T02:25:12;110820.22;;;9.20;100.00
788;BME280;16074;42.708;23.312;2023-11-25T02:27:42;109136.38;;;9.23;100.00
788;BME280;16074;42.708;23.312;2023-11-25T02:30:11;107590.53;;;9.17;100.00
788;BME280;16074;42.708;23.312;2023-11-25T02:32:40;105091.91;;;9.17;100.00
788;BME280;16074;42.708;23.312;2023-11-25T02:35:08;103397.94;;;9.19;100.00
788;BME280;16074;42.708;23.312;2023-11-25T02:37:38;101645.06;;;9.22;100.00
788;BME280;16074;42.708;23.312;2023-11-25T02:40:08;100568.69;;;9.20;100.00
788;BME280;16074;42.708;23.312;2023-11-25T02:42:42;99936.78;;;9.16;100.00
788;BME280;16074;42.708;23.312;2023-11-25T02:45:15;98322.81;;;9.13;100.00
788;BME280;16074;42.708;23.312;2023-11-25T02:47:45;97912.44;;;8.97;100.00
788;BME280;16074;42.708;23.312;2023-11-25T02:50:15;96941.34;;;8.97;100.00
788;BME280;16074;42.708;23.312;2023-11-25T02:52:43;96093.88;;;8.76;100.00
788;BME280;16074;42.708;23.312;2023-11-25T02:55:29;93943.94;;;8.57;100.00
788;BME280;16074;42.708;23.312;2023-11-25T02:57:58;91644.34;;;8.37;100.00
788;BME280;16074;42.708;23.312;2023-11-25T03:00:27;90190.03;;;8.31;100.00
788;BME280;16074;42.708;23.312;2023-11-25T03:03:03;88327.84;;;8.39;100.00
788;BME280;16074;42.708;23.312;2023-11-25T03:05:40;86825.81;;;8.42;100.00
788;BME280;16074;42.708;23.312;2023-11-25T03:08:13;86906.63;;;8.25;100.00
788;BME280;16074;42.708;23.312;2023-11-25T03:10:43;86766.38;;;8.08;100.00
788;BME280;16074;42.708;23.312;2023-11-25T03:13:15;85315.28;;;8.08;100.00
788;BME280;16074;42.708;23.312;2023-11-25T03:15:43;85763.03;;;7.88;100.00
788;BME280;16074;42.708;23.312;2023-11-25T03:18:11;84869.59;;;7.85;100.00
788;BME280;16074;42.708;23.312;2023-11-25T03:20:39;83720.53;;;7.92;100.00
788;BME280;16074;42.708;23.312;2023-11-25T03:23:07;83886.38;;;7.81;100.00
788;BME280;16074;42.708;23.312;2023-11-25T03:25:36;82791.59;;;7.93;100.00
788;BME280;16074;42.708;23.312;2023-11-25T03:28:06;83319.28;;;7.83;100.00
788;BME280;16074;42.708;23.312;2023-11-25T03:30:39;82409.28;;;7.88;100.00
788;BME280;16074;42.708;23.312;2023-11-25T03:33:08;83045.03;;;7.68;100.00
788;BME280;16074;42.708;23.312;2023-11-25T03:35:37;83249.84;;;7.66;100.00
788;BME280;16074;42.708;23.312;2023-11-25T03:38:05;83440.66;;;7.61;100.00
788;BME280;16074;42.708;23.312;2023-11-25T03:40:34;83795.97;;;7.45;100.00
788;BME280;16074;42.708;23.312;2023-11-25T03:43:02;83982.47;;;7.34;100.00
788;BME280;16074;42.708;23.312;2023-11-25T03:45:31;83543.44;;;7.27;100.00
788;BME280;16074;42.708;23.312;2023-11-25T03:48:01;82683.44;;;7.25;100.00
788;BME280;16074;42.708;23.312;2023-11-25T03:50:30;81925.59;;;7.32;100.00
788;BME280;16074;42.708;23.312;2023-11-25T03:52:58;81648.63;;;7.22;100.00
788;BME280;16074;42.708;23.312;2023-11-25T03:55:26;80735.47;;;7.29;100.00
788;BME280;16074;42.708;23.312;2023-11-25T03:57:54;80348.72;;;7.32;100.00
788;BME280;16074;42.708;23.312;2023-11-25T04:00:22;79522.75;;;7.40;100.00
788;BME280;16074;42.708;23.312;2023-11-25T04:02:51;78591.88;;;7.46;100.00
788;BME280;16074;42.708;23.312;2023-11-25T04:05:21;78591.31;;;7.48;100.00
788;BME280;16074;42.708;23.312;2023-11-25T04:07:50;78821.66;;;7.39;100.00
788;BME280;16074;42.708;23.312;2023-11-25T04:10:20;78686.88;;;7.36;100.00
788;BME280;16074;42.708;23.312;2023-11-25T04:12:48;81116.06;;;6.91;100.00
788;BME280;16074;42.708;23.312;2023-11-25T04:15:18;80049.34;;;6.98;100.00
788;BME280;16074;42.708;23.312;2023-11-25T04:17:48;79969.13;;;6.95;100.00
788;BME280;16074;42.708;23.312;2023-11-25T04:20:18;79960.28;;;6.98;100.00
788;BME280;16074;42.708;23.312;2023-11-25T04:22:55;80790.41;;;6.78;100.00
788;BME280;16074;42.708;23.312;2023-11-25T04:25:25;81238.31;;;6.60;100.00
788;BME280;16074;42.708;23.312;2023-11-25T04:27:53;80412.78;;;6.70;100.00
788;BME280;16074;42.708;23.312;2023-11-25T04:30:21;81129.66;;;6.58;100.00
788;BME280;16074;42.708;23.312;2023-11-25T04:32:49;81010.69;;;6.51;100.00
788;BME280;16074;42.708;23.312;2023-11-25T04:35:18;81281.31;;;6.42;100.00
788;BME280;16074;42.708;23.312;2023-11-25T04:37:46;81648.72;;;6.34;100.00
788;BME280;16074;42.708;23.312;2023-11-25T04:40:16;82041.09;;;6.17;100.00
788;BME280;16074;42.708;23.312;2023-11-25T04:42:45;82602.78;;;6.01;100.00
788;BME280;16074;42.708;23.312;2023-11-25T04:45:13;82691.72;;;5.91;100.00
788;BME280;16074;42.708;23.312;2023-11-25T04:47:45;82815.38;;;5.88;100.00
788;BME280;16074;42.708;23.312;2023-11-25T04:50:15;81786.09;;;6.02;100.00
788;BME280;16074;42.708;23.312;2023-11-25T04:52:43;81957.03;;;5.98;100.00
788;BME280;16074;42.708;23.312;2023-11-25T04:55:12;81951.59;;;5.96;100.00
788;BME280;16074;42.708;23.312;2023-11-25T04:57:43;83085.44;;;5.74;100.00
788;BME280;16074;42.708;23.312;2023-11-25T05:00:12;83168.25;;;5.72;100.00
788;BME280;16074;42.708;23.312;2023-11-25T05:02:42;83218.47;;;5.69;100.00
788;BME280;16074;42.708;23.312;2023-11-25T05:05:11;83726.66;;;5.60;100.00
788;BME280;16074;42.708;23.312;2023-11-25T05:07:40;84348.75;;;5.45;100.00
788;BME280;16074;42.708;23.312;2023-11-25T05:10:09;85050.75;;;5.28;100.00
788;BME280;16074;42.708;23.312;2023-11-25T05:12:38;85160.31;;;5.16;100.00
788;BME280;16074;42.708;23.312;2023-11-25T05:15:11;85566.00;;;5.09;100.00
788;BME280;16074;42.708;23.312;2023-11-25T05:17:39;84824.38;;;5.17;100.00
788;BME280;16074;42.708;23.312;2023-11-25T05:20:08;85376.59;;;5.06;100.00
788;BME280;16074;42.708;23.312;2023-11-25T05:22:43;87168.69;;;4.70;100.00
788;BME280;16074;42.708;23.312;2023-11-25T05:25:11;87620.00;;;4.64;100.00
788;BME280;16074;42.708;23.312;2023-11-25T05:27:40;88373.94;;;4.44;100.00
788;BME280;16074;42.708;23.312;2023-11-25T05:30:10;88129.00;;;4.45;100.00
788;BME280;16074;42.708;23.312;2023-11-25T05:32:41;88359.59;;;4.38;100.00
788;BME280;16074;42.708;23.312;2023-11-25T05:35:11;89309.94;;;4.20;100.00
788;BME280;16074;42.708;23.312;2023-11-25T05:37:40;88910.38;;;4.25;100.00
788;BME280;16074;42.708;23.312;2023-11-25T05:40:11;90056.34;;;4.05;100.00
788;BME280;16074;42.708;23.312;2023-11-25T05:42:41;90796.97;;;3.86;100.00
788;BME280;16074;42.708;23.312;2023-11-25T05:45:17;91560.84;;;3.77;100.00
788;BME280;16074;42.708;23.312;2023-11-25T05:47:47;91745.09;;;3.70;100.00
788;BME280;16074;42.708;23.312;2023-11-25T05:50:17;92497.03;;;3.52;100.00
788;BME280;16074;42.708;23.312;2023-11-25T05:52:48;92449.75;;;3.50;100.00
788;BME280;16074;42.708;23.312;2023-11-25T05:55:17;92299.78;;;3.54;100.00
788;BME280;16074;42.708;23.312;2023-11-25T05:57:48;92021.31;;;3.55;100.00
788;BME280;16074;42.708;23.312;2023-11-25T06:00:20;92676.13;;;3.45;100.00
788;BME280;16074;42.708;23.312;2023-11-25T06:02:50;94031.56;;;3.20;100.00
788;BME280;16074;42.708;23.312;2023-11-25T06:05:20;94332.78;;;3.16;100.00
788;BME280;16074;42.708;23.312;2023-11-25T06:07:48;94979.75;;;3.01;100.00
788;BME280;16074;42.708;23.312;2023-11-25T06:10:16;95364.63;;;2.97;100.00
788;BME280;16074;42.708;23.312;2023-11-25T06:12:46;95508.31;;;2.94;100.00
788;BME280;16074;42.708;23.312;2023-11-25T06:15:14;96107.25;;;2.82;100.00
788;BME280;16074;42.708;23.312;2023-11-25T06:17:44;97288.03;;;2.59;100.00
788;BME280;16074;42.708;23.312;2023-11-25T06:20:14;97419.63;;;2.54;100.00
788;BME280;16074;42.708;23.312;2023-11-25T06:22:42;98153.59;;;2.44;100.00
788;BME280;16074;42.708;23.312;2023-11-25T06:25:10;98134.59;;;2.43;100.00
788;BME280;16074;42.708;23.312;2023-11-25T06:27:38;98322.13;;;2.42;100.00
788;BME280;16074;42.708;23.312;2023-11-25T06:30:08;98239.31;;;2.38;100.00
788;BME280;16074;42.708;23.312;2023-11-25T06:32:36;99227.16;;;2.25;100.00
788;BME280;16074;42.708;23.312;2023-11-25T06:35:06;99499.41;;;2.17;100.00
788;BME280;16074;42.708;23.312;2023-11-25T06:37:36;99956.47;;;2.07;100.00
788;BME280;16074;42.708;23.312;2023-11-25T06:40:07;100080.88;;;2.07;100.00
788;BME280;16074;42.708;23.312;2023-11-25T06:42:40;99363.75;;;2.18;100.00
788;BME280;16074;42.708;23.312;2023-11-25T06:45:11;98843.56;;;2.26;100.00
788;BME280;16074;42.708;23.312;2023-11-25T06:47:41;99031.09;;;2.22;100.00
788;BME280;16074;42.708;23.312;2023-11-25T06:50:11;100127.50;;;2.06;100.00
788;BME280;16074;42.708;23.312;2023-11-25T06:52:39;99955.59;;;2.08;100.00
788;BME280;16074;42.708;23.312;2023-11-25T06:55:08;100725.25;;;1.96;100.00
788;BME280;16074;42.708;23.312;2023-11-25T06:57:37;101101.81;;;1.88;100.00
788;BME280;16074;42.708;23.312;2023-11-25T07:00:08;101013.75;;;1.91;100.00
788;BME280;16074;42.708;23.312;2023-11-25T07:02:38;100953.25;;;1.89;100.00
788;BME280;16074;42.708;23.312;2023-11-25T07:05:07;101442.06;;;1.84;100.00
788;BME280;16074;42.708;23.312;2023-11-25T07:07:37;101524.94;;;1.82;100.00
788;BME280;16074;42.708;23.312;2023-11-25T07:10:07;101404.03;;;1.83;100.00
788;BME280;16074;42.708;23.312;2023-11-25T07:12:37;101540.50;;;1.82;100.00
788;BME280;16074;42.708;23.312;2023-11-25T07:15:06;101823.69;;;1.77;100.00
788;BME280;16074;42.708;23.312;2023-11-25T07:17:34;102149.19;;;1.72;100.00
788;BME280;16074;42.708;23.312;2023-11-25T07:20:05;102455.66;;;1.66;100.00
788;BME280;16074;42.708;23.312;2023-11-25T07:22:41;102745.78;;;1.63;100.00
788;BME280;16074;42.708;23.312;2023-11-25T07:25:09;102062.06;;;1.75;100.00
788;BME280;16074;42.708;23.312;2023-11-25T07:27:39;102383.25;;;1.71;100.00
788;BME280;16074;42.708;23.312;2023-11-25T07:30:08;102450.69;;;1.72;100.00
788;BME280;16074;42.708;23.312;2023-11-25T07:32:37;102208.13;;;1.77;100.00
788;BME280;16074;42.708;23.312;2023-11-25T07:35:06;102321.28;;;1.77;100.00
788;BME280;16074;42.708;23.312;2023-11-25T07:37:35;102426.72;;;1.78;100.00
788;BME280;16074;42.708;23.312;2023-11-25T07:40:06;102387.16;;;1.82;100.00
788;BME280;16074;42.708;23.312;2023-11-25T07:42:36;102404.34;;;1.80;100.00
788;BME280;16074;42.708;23.312;2023-11-25T07:45:06;102436.31;;;1.80;100.00
788;BME280;16074;42.708;23.312;2023-11-25T07:47:36;102138.53;;;1.88;100.00
788;BME280;16074;42.708;23.312;2023-11-25T07:50:05;102480.47;;;1.82;100.00
788;BME280;16074;42.708;23.312;2023-11-25T07:52:34;102093.72;;;1.92;100.00
788;BME280;16074;42.708;23.312;2023-11-25T07:55:03;101725.84;;;2.01;100.00
788;BME280;16074;42.708;23.312;2023-11-25T07:57:32;101739.69;;;2.01;100.00
788;BME280;16074;42.708;23.312;2023-11-25T08:00:01;101622.19;;;2.02;100.00
788;BME280;16074;42.708;23.312;2023-11-25T08:02:37;101860.81;;;2.07;100.00
788;BME280;16074;42.708;23.312;2023-11-25T08:05:07;101569.69;;;2.11;100.00
788;BME280;16074;42.708;23.312;2023-11-25T08:07:35;101227.56;;;2.17;100.00
788;BME280;16074;42.708;23.312;2023-11-25T08:10:04;100989.09;;;2.21;100.00
788;BME280;16074;42.708;23.312;2023-11-25T08:12:36;101521.31;;;2.13;100.00
788;BME280;16074;42.708;23.312;2023-11-25T08:15:04;101389.19;;;2.17;100.00
788;BME280;16074;42.708;23.312;2023-11-25T08:17:33;102100.19;;;2.06;100.00
788;BME280;16074;42.708;23.312;2023-11-25T08:20:01;102424.06;;;1.98;100.00
788;BME280;16074;42.708;23.312;2023-11-25T08:22:29;102395.53;;;1.98;100.00
788;BME280;16074;42.708;23.312;2023-11-25T08:24:57;102278.06;;;2.01;100.00
788;BME280;16074;42.708;23.312;2023-11-25T08:27:32;102292.78;;;2.02;100.00
788;BME280;16074;42.708;23.312;2023-11-25T08:30:01;102375.66;;;1.99;100.00
788;BME280;16074;42.708;23.312;2023-11-25T08:32:30;103092.69;;;1.91;100.00
788;BME280;16074;42.708;23.312;2023-11-25T08:34:59;102696.25;;;1.97;100.00
788;BME280;16074;42.708;23.312;2023-11-25T08:37:27;103430.16;;;1.82;100.00
788;BME280;16074;42.708;23.312;2023-11-25T08:39:55;103236.91;;;1.89;100.00
788;BME280;16074;42.708;23.312;2023-11-25T08:42:26;103313.63;;;1.85;100.00
788;BME280;16074;42.708;23.312;2023-11-25T08:44:56;103516.06;;;1.88;100.00
788;BME280;16074;42.708;23.312;2023-11-25T08:47:25;103902.97;;;1.83;100.00
788;BME280;16074;42.708;23.312;2023-11-25T08:49:53;103832.16;;;1.84;100.00
788;BME280;16074;42.708;23.312;2023-11-25T08:52:23;103577.56;;;1.91;100.00
788;BME280;16074;42.708;23.312;2023-11-25T08:54:54;103808.38;;;1.91;100.00
788;BME280;16074;42.708;23.312;2023-11-25T08:57:22;103530.50;;;1.99;100.00
788;BME280;16074;42.708;23.312;2023-11-25T08:59:50;103470.03;;;2.00;100.00
788;BME280;16074;42.708;23.312;2023-11-25T09:02:18;103915.16;;;1.98;100.00
788;BME280;16074;42.708;23.312;2023-11-25T09:04:51;103798.00;;;2.05;100.00
788;BME280;16074;42.708;23.312;2023-11-25T09:07:35;103777.34;;;2.07;100.00
788;BME280;16074;42.708;23.312;2023-11-25T09:10:05;103985.03;;;2.10;100.00
788;BME280;16074;42.708;23.312;2023-11-25T09:12:34;104228.03;;;2.09;100.00
788;BME280;16074;42.708;23.312;2023-11-25T09:15:04;104078.94;;;2.17;100.00
788;BME280;16074;42.708;23.312;2023-11-25T09:17:35;105066.50;;;2.04;100.00
788;BME280;16074;42.708;23.312;2023-11-25T09:20:08;105776.06;;;1.97;100.00
788;BME280;16074;42.708;23.312;2023-11-25T09:22:40;106486.78;;;1.94;100.00
788;BME280;16074;42.708;23.312;2023-11-25T09:25:09;106931.59;;;1.88;100.00
788;BME280;16074;42.708;23.312;2023-11-25T09:27:39;107205.94;;;1.89;100.00
788;BME280;16074;42.708;23.312;2023-11-25T09:30:08;107037.34;;;1.97;100.00
788;BME280;16074;42.708;23.312;2023-11-25T09:32:39;107306.91;;;2.01;100.00
788;BME280;16074;42.708;23.312;2023-11-25T09:35:10;107087.31;;;2.10;100.00
788;BME280;16074;42.708;23.312;2023-11-25T09:37:39;108945.53;;;2.03;100.00
788;BME280;16074;42.708;23.312;2023-11-25T09:40:08;108393.28;;;2.16;100.00
788;BME280;16074;42.708;23.312;2023-11-25T09:42:41;107877.03;;;2.27;100.00
788;BME280;16074;42.708;23.312;2023-11-25T09:45:11;107504.84;;;2.35;100.00
788;BME280;16074;42.708;23.312;2023-11-25T09:47:41;107561.09;;;2.34;100.00
788;BME280;16074;42.708;23.312;2023-11-25T09:50:13;107602.09;;;2.37;100.00
788;BME280;16074;42.708;23.312;2023-11-25T09:52:46;108413.56;;;2.18;100.00
788;BME280;16074;42.708;23.312;2023-11-25T09:55:16;108208.03;;;2.22;100.00
788;BME280;16074;42.708;23.312;2023-11-25T09:57:47;108586.47;;;2.16;100.00
788;BME280;16074;42.708;23.312;2023-11-25T10:00:17;108193.38;;;2.23;100.00
788;BME280;16074;42.708;23.312;2023-11-25T10:02:51;108163.34;;;2.25;100.00
788;BME280;16074;42.708;23.312;2023-11-25T10:05:21;108450.44;;;2.16;100.00
788;BME280;16074;42.708;23.312;2023-11-25T10:07:50;108781.31;;;2.11;100.00
788;BME280;16074;42.708;23.312;2023-11-25T10:10:18;108916.47;;;2.05;100.00
788;BME280;16074;42.708;23.312;2023-11-25T10:12:51;108876.28;;;2.09;100.00
788;BME280;16074;42.708;23.312;2023-11-25T10:15:20;108540.44;;;2.15;100.00
788;BME280;16074;42.708;23.312;2023-11-25T10:17:49;108119.00;;;2.23;100.00
788;BME280;16074;42.708;23.312;2023-11-25T10:20:17;107712.31;;;2.32;100.00
788;BME280;16074;42.708;23.312;2023-11-25T10:22:49;107576.69;;;2.34;100.00
788;BME280;16074;42.708;23.312;2023-11-25T10:25:21;107271.78;;;2.41;100.00
788;BME280;16074;42.708;23.312;2023-11-25T10:27:49;106750.06;;;2.52;100.00
788;BME280;16074;42.708;23.312;2023-11-25T10:30:20;106787.22;;;2.51;100.00
788;BME280;16074;42.708;23.312;2023-11-25T10:32:49;106759.72;;;2.53;100.00
788;BME280;16074;42.708;23.312;2023-11-25T10:35:22;106487.38;;;2.58;100.00
788;BME280;16074;42.708;23.312;2023-11-25T10:37:53;106233.38;;;2.64;100.00
788;BME280;16074;42.708;23.312;2023-11-25T10:40:22;106049.81;;;2.64;100.00
788;BME280;16074;42.708;23.312;2023-11-25T10:42:52;106641.44;;;2.57;100.00
788;BME280;16074;42.708;23.312;2023-11-25T10:45:22;106553.53;;;2.53;100.00
788;BME280;16074;42.708;23.312;2023-11-25T10:47:54;106496.06;;;2.58;100.00
788;BME280;16074;42.708;23.312;2023-11-25T10:50:23;106420.91;;;2.60;100.00
788;BME280;16074;42.708;23.312;2023-11-25T10:52:55;105758.03;;;2.74;100.00
788;BME280;16074;42.708;23.312;2023-11-25T10:55:25;105426.44;;;2.86;100.00
788;BME280;16074;42.708;23.312;2023-11-25T10:57:56;105138.16;;;2.87;100.00
788;BME280;16074;42.708;23.312;2023-11-25T11:00:27;104868.41;;;2.93;100.00
788;BME280;16074;42.708;23.312;2023-11-25T11:02:57;104519.25;;;3.04;100.00
788;BME280;16074;42.708;23.312;2023-11-25T11:05:34;104566.81;;;3.03;100.00
788;BME280;16074;42.708;23.312;2023-11-25T11:08:07;105448.44;;;2.79;100.00
788;BME280;16074;42.708;23.312;2023-11-25T11:10:43;105519.88;;;2.74;100.00
788;BME280;16074;42.708;23.312;2023-11-25T11:13:18;105288.63;;;2.84;100.00
788;BME280;16074;42.708;23.312;2023-11-25T11:15:52;105173.19;;;2.81;100.00
788;BME280;16074;42.708;23.312;2023-11-25T11:18:24;104702.78;;;2.91;100.00
788;BME280;16074;42.708;23.312;2023-11-25T11:20:55;104712.38;;;2.92;100.00
788;BME280;16074;42.708;23.312;2023-11-25T11:23:28;104555.09;;;2.97;100.00
788;BME280;16074;42.708;23.312;2023-11-25T11:26:09;104657.22;;;2.96;100.00
788;BME280;16074;42.708;23.312;2023-11-25T11:28:45;104250.78;;;3.05;100.00
788;BME280;16074;42.708;23.312;2023-11-25T11:31:46;104155.63;;;3.07;100.00
788;BME280;16074;42.708;23.312;2023-11-25T11:34:26;105215.78;;;2.83;100.00
788;BME280;16074;42.708;23.312;2023-11-25T11:36:54;104931.09;;;2.86;100.00
788;BME280;16074;42.708;23.312;2023-11-25T11:39:36;104783.22;;;2.89;100.00
788;BME280;16074;42.708;23.312;2023-11-25T11:42:25;104630.22;;;2.94;100.00
788;BME280;16074;42.708;23.312;2023-11-25T11:44:58;104275.78;;;3.03;100.00
788;BME280;16074;42.708;23.312;2023-11-25T11:47:39;104791.69;;;2.87;100.00
788;BME280;16074;42.708;23.312;2023-11-25T11:50:08;104311.97;;;3.00;100.00
788;BME280;16074;42.708;23.312;2023-11-25T11:52:46;105547.16;;;2.69;100.00
788;BME280;16074;42.708;23.312;2023-11-25T11:55:37;105227.59;;;2.79;100.00
788;BME280;16074;42.708;23.312;2023-11-25T11:58:07;104839.38;;;2.87;100.00
788;BME280;16074;42.708;23.312;2023-11-25T12:00:38;105273.31;;;2.77;100.00
788;BME280;16074;42.708;23.312;2023-11-25T12:03:07;105356.34;;;2.76;100.00
788;BME280;16074;42.708;23.312;2023-11-25T12:05:36;105710.56;;;2.66;100.00
788;BME280;16074;42.708;23.312;2023-11-25T12:08:05;106121.09;;;2.58;100.00
788;BME280;16074;42.708;23.312;2023-11-25T12:10:33;105436.63;;;2.73;100.00
788;BME280;16074;42.708;23.312;2023-11-25T12:13:02;105230.97;;;2.78;100.00
788;BME280;16074;42.708;23.312;2023-11-25T12:15:31;105709.94;;;2.69;100.00
788;BME280;16074;42.708;23.312;2023-11-25T12:17:59;106557.22;;;2.46;100.00
788;BME280;16074;42.708;23.312;2023-11-25T12:20:28;106712.88;;;2.45;100.00
788;BME280;16074;42.708;23.312;2023-11-25T12:23:05;106722.81;;;2.40;100.00
788;BME280;16074;42.708;23.312;2023-11-25T12:25:35;106301.56;;;2.53;100.00
788;BME280;16074;42.708;23.312;2023-11-25T12:28:07;106661.88;;;2.45;100.00
788;BME280;16074;42.708;23.312;2023-11-25T12:30:36;106574.47;;;2.46;100.00
788;BME280;16074;42.708;23.312;2023-11-25T12:33:05;106920.34;;;2.42;100.00
788;BME280;16074;42.708;23.312;2023-11-25T12:35:34;106625.81;;;2.48;100.00
788;BME280;16074;42.708;23.312;2023-11-25T12:38:03;106455.91;;;2.55;100.00
788;BME280;16074;42.708;23.312;2023-11-25T12:40:42;107535.13;;;2.28;100.00
788;BME280;16074;42.708;23.312;2023-11-25T12:43:14;107591.53;;;2.29;100.00
788;BME280;16074;42.708;23.312;2023-11-25T12:45:43;107989.84;;;2.22;100.00
788;BME280;16074;42.708;23.312;2023-11-25T12:48:13;107870.16;;;2.21;100.00
788;BME280;16074;42.708;23.312;2023-11-25T12:51:00;108004.09;;;2.19;100.00
788;BME280;16074;42.708;23.312;2023-11-25T12:53:30;107490.41;;;2.30;100.00
788;BME280;16074;42.708;23.312;2023-11-25T12:55:59;106983.44;;;2.41;100.00
788;BME280;16074;42.708;23.312;2023-11-25T12:58:29;107065.66;;;2.40;100.00
788;BME280;16074;42.708;23.312;2023-11-25T13:00:58;108138.03;;;2.17;100.00
788;BME280;16074;42.708;23.312;2023-11-25T13:03:27;108351.31;;;2.13;100.00
788;BME280;16074;42.708;23.312;2023-11-25T13:05:59;108190.94;;;2.17;100.00
788;BME280;16074;42.708;23.312;2023-11-25T13:08:30;108367.53;;;2.17;100.00
788;BME280;16074;42.708;23.312;2023-11-25T13:11:01;108474.13;;;2.12;100.00
788;BME280;16074;42.708;23.312;2023-11-25T13:13:33;108498.88;;;2.15;100.00
788;BME280;16074;42.708;23.312;2023-11-25T13:16:02;108522.44;;;2.17;100.00
788;BME280;16074;42.708;23.312;2023-11-25T13:18:31;108945.25;;;2.07;100.00